^^
Saratoga-Weather Station Historical Data
Daily Summary for July 14, 2020 Units:  English    Metric   Both
Daily Weekly Monthly Yearly Custom
  High: Low: Average:
Temperature: 75.2 °F 69.6 °F 71.8 °F
Dew Point: 65.3 °F 59.2 °F 61.3 °F
Humidity: 83% 58% 70%
Wind Speed: 6.9mph 0mph 0.9mph
Wind Gust: 9mph - -
Wind- - WSW
Pressure: 29.9 in 29.9 in -
Precipitation: 0 in    
Historical Graphs
 
 
Tabular Data for July 14, 2020
Time Temperature Dew Point Pressure Wind Wind Speed Wind Gust Humidity Rainfall Rate (Hourly) solar
00:04 74.8 °F 59.5 °F 29.9 in West 2 mph 8 mph 59% 0 in 0 W/m2
00:09 75 °F 59.2 °F 29.9 in West 2 mph 9 mph 58% 0 in 0 W/m2
00:14 75 °F 59.2 °F 29.9 in WNW 4 mph 4 mph 58% 0 in 0 W/m2
00:19 75 °F 59.2 °F 29.9 in WSW 2.9 mph 7 mph 58% 0 in 0 W/m2
00:24 75 °F 59.2 °F 29.9 in West 6.9 mph 8 mph 58% 0 in 0 W/m2
00:29 75 °F 59.2 °F 29.9 in WNW 4 mph 6 mph 58% 0 in 0 W/m2
00:34 75 °F 59.2 °F 29.9 in West 2.9 mph 8 mph 58% 0 in 0 W/m2
00:39 75 °F 59.2 °F 29.9 in West 2.9 mph 7 mph 58% 0 in 0 W/m2
00:44 75.2 °F 59.4 °F 29.9 in WNW 4 mph 4 mph 58% 0 in 0 W/m2
00:49 75.2 °F 59.4 °F 29.9 in NW 2 mph 4 mph 58% 0 in 0 W/m2
00:54 75 °F 59.2 °F 29.9 in WNW 2.9 mph 7 mph 58% 0 in 0 W/m2
00:59 74.8 °F 59.5 °F 29.9 in West 2 mph 9 mph 59% 0 in 0 W/m2
01:05 74.8 °F 59.5 °F 29.9 in WNW 2 mph 6 mph 59% 0 in 0 W/m2
01:10 74.8 °F 59.5 °F 29.9 in NW 2.9 mph 8 mph 59% 0 in 0 W/m2
01:15 74.8 °F 59.5 °F 29.9 in WNW 0.9 mph 2 mph 59% 0 in 0 W/m2
01:20 74.7 °F 59.9 °F 29.9 in NW 0.9 mph 5 mph 60% 0 in 0 W/m2
01:25 74.7 °F 59.9 °F 29.9 in WNW 2 mph 3 mph 60% 0 in 0 W/m2
01:30 74.3 °F 59.9 °F 29.9 in West 2.9 mph 4 mph 61% 0 in 0 W/m2
01:35 73.9 °F 59.7 °F 29.9 in West 2.9 mph 3 mph 61% 0 in 0 W/m2
01:40 73.8 °F 59.9 °F 29.9 in Calm     62% 0 in 0 W/m2
01:45 73.4 °F 59.5 °F 29.9 in Calm     62% 0 in 0 W/m2
01:50 73 °F 59.7 °F 29.9 in Calm     63% 0 in 0 W/m2
01:55 72.9 °F 59.9 °F 29.9 in Calm     64% 0 in 0 W/m2
02:00 72.7 °F 59.7 °F 29.9 in Calm     64% 0 in 0 W/m2
02:05 72.3 °F 59.9 °F 29.9 in Calm     65% 0 in 0 W/m2
02:10 72.1 °F 59.7 °F 29.9 in Calm   2 mph 65% 0 in 0 W/m2
02:15 72.3 °F 59.5 °F 29.9 in West 2.9 mph 3 mph 64% 0 in 0 W/m2
02:20 72.9 °F 59.5 °F 29.9 in West 2 mph 8 mph 63% 0 in 0 W/m2
02:25 73.6 °F 59.7 °F 29.9 in WNW 2 mph 3 mph 62% 0 in 0 W/m2
02:30 73.9 °F 60.1 °F 29.9 in West 0.9 mph 5 mph 62% 0 in 0 W/m2
02:35 73.9 °F 59.7 °F 29.9 in WSW 2 mph 3 mph 61% 0 in 0 W/m2
02:40 73.9 °F 59.7 °F 29.9 in West 0.9 mph 2 mph 61% 0 in 0 W/m2
02:46 73.9 °F 59.7 °F 29.9 in WNW 0.9 mph 2 mph 61% 0 in 0 W/m2
02:51 73.8 °F 59.9 °F 29.9 in West 2 mph 3 mph 62% 0 in 0 W/m2
02:56 73.6 °F 59.7 °F 29.9 in West 0.9 mph 3 mph 62% 0 in 0 W/m2
03:01 73.6 °F 59.7 °F 29.9 in Calm   2 mph 62% 0 in 0 W/m2
03:06 73.4 °F 59.5 °F 29.9 in West 0.9 mph 3 mph 62% 0 in 0 W/m2
03:11 73.2 °F 59.9 °F 29.9 in West 0.9 mph 2 mph 63% 0 in 0 W/m2
03:16 73 °F 59.7 °F 29.9 in WSW 2 mph 3 mph 63% 0 in 0 W/m2
03:21 73.2 °F 59.9 °F 29.9 in West 2 mph 2 mph 63% 0 in 0 W/m2
03:26 73.2 °F 59.9 °F 29.9 in West 2 mph 3 mph 63% 0 in 0 W/m2
03:31 73.4 °F 60.1 °F 29.9 in WNW 2 mph 2 mph 63% 0 in 0 W/m2
03:36 73.4 °F 59.5 °F 29.9 in WNW 2 mph 4 mph 62% 0 in 0 W/m2
03:41 73.4 °F 60.1 °F 29.9 in NW 0.9 mph 2 mph 63% 0 in 0 W/m2
03:46 73.4 °F 60.1 °F 29.9 in NW 0.9 mph 2 mph 63% 0 in 0 W/m2
03:51 73.2 °F 59.9 °F 29.9 in Calm   1 mph 63% 0 in 0 W/m2
03:56 72.9 °F 60.4 °F 29.9 in Calm     65% 0 in 0 W/m2
04:01 72.7 °F 60.3 °F 29.9 in North 2 mph 2 mph 65% 0 in 0 W/m2
04:06 72.3 °F 60.3 °F 29.9 in Calm   1 mph 66% 0 in 0 W/m2
04:11 72.1 °F 60.1 °F 29.9 in NE 0.9 mph 2 mph 66% 0 in 0 W/m2
04:16 72 °F 60.4 °F 29.9 in East 0.9 mph 2 mph 67% 0 in 0 W/m2
04:21 71.6 °F 60.1 °F 29.9 in East 0.9 mph 1 mph 67% 0 in 0 W/m2
04:26 71.4 °F 60.3 °F 29.9 in Calm   1 mph 68% 0 in 0 W/m2
04:31 71.2 °F 60.1 °F 29.9 in Calm     68% 0 in 0 W/m2
04:37 71.1 °F 60.4 °F 29.9 in Calm     69% 0 in 0 W/m2
04:42 70.9 °F 60.3 °F 29.9 in Calm     69% 0 in 0 W/m2
04:47 70.7 °F 60.1 °F 29.9 in Calm     69% 0 in 0 W/m2
04:52 70.5 °F 60.3 °F 29.9 in Calm     70% 0 in 0 W/m2
04:57 70.3 °F 60.1 °F 29.9 in Calm     70% 0 in 0 W/m2
05:02 70.3 °F 60.4 °F 29.9 in Calm     71% 0 in 0 W/m2
05:07 70.2 °F 60.3 °F 29.9 in Calm     71% 0 in 0 W/m2
05:12 70 °F 60.1 °F 29.9 in SE 0.9 mph 2 mph 71% 0 in 0 W/m2
05:17 69.6 °F 60.3 °F 29.9 in SE 0.9 mph 1 mph 72% 0 in 0 W/m2
05:22 69.6 °F 60.3 °F 29.9 in South 0.9 mph 1 mph 72% 0 in 0 W/m2
05:27 69.6 °F 60.3 °F 29.9 in Calm     72% 0 in 0 W/m2
05:32 69.6 °F 60.3 °F 29.9 in Calm   1 mph 72% 0 in 0 W/m2
05:37 69.8 °F 60.4 °F 29.9 in Calm   1 mph 72% 0 in 0 W/m2
05:42 69.8 °F 60.4 °F 29.9 in Calm     72% 0 in 0 W/m2
05:47 69.6 °F 60.6 °F 29.9 in Calm   2 mph 73% 0 in 0 W/m2
05:52 69.8 °F 60.8 °F 29.9 in WSW 2 mph 2 mph 73% 0 in 0 W/m2
05:57 70 °F 61 °F 29.9 in WSW 0.9 mph 2 mph 73% 0 in 0 W/m2
06:02 70.2 °F 61.2 °F 29.9 in Calm   1 mph 73% 0 in 0 W/m2
06:07 70.2 °F 60.6 °F 29.9 in Calm     72% 0 in 0 W/m2
06:12 70.2 °F 61.2 °F 29.9 in Calm   1 mph 73% 0 in 0 W/m2
06:17 70.2 °F 61.2 °F 29.9 in Calm     73% 0 in 0 W/m2
06:22 70.2 °F 61.2 °F 29.9 in Calm   1 mph 73% 0 in 0 W/m2
06:27 70.2 °F 61.2 °F 29.9 in Calm     73% 0 in 0 W/m2
06:32 70.2 °F 61.5 °F 29.9 in Calm     74% 0 in 0 W/m2
06:37 70.2 °F 61.5 °F 29.9 in Calm     74% 0 in 5 W/m2
06:42 70.2 °F 61.9 °F 29.9 in Calm     75% 0 in 11 W/m2
06:48 70 °F 61.7 °F 29.9 in Calm     75% 0 in 21 W/m2
06:53 70 °F 62.1 °F 29.9 in Calm     76% 0 in 25 W/m2
06:58 70 °F 62.1 °F 29.9 in Calm   1 mph 76% 0 in 19 W/m2
07:03 70.2 °F 62.2 °F 29.9 in Calm     76% 0 in 14 W/m2
07:08 70.2 °F 62.2 °F 29.9 in Calm     76% 0 in 12 W/m2
07:13 70.2 °F 62.2 °F 29.9 in Calm     76% 0 in 16 W/m2
07:18 70.2 °F 62.6 °F 29.9 in West 0.9 mph 3 mph 77% 0 in 18 W/m2
07:23 70.2 °F 62.6 °F 29.9 in Calm   1 mph 77% 0 in 19 W/m2
07:28 70.2 °F 62.6 °F 29.9 in Calm   1 mph 77% 0 in 19 W/m2
07:33 70.2 °F 62.6 °F 29.9 in Calm     77% 0 in 21 W/m2
07:38 70.2 °F 62.6 °F 29.9 in Calm     77% 0 in 30 W/m2
07:43 70.2 °F 62.6 °F 29.9 in Calm     77% 0 in 35 W/m2
07:48 70.2 °F 63 °F 29.9 in Calm     78% 0 in 37 W/m2
07:53 70.3 °F 63.1 °F 29.9 in ESE 0.9 mph 2 mph 78% 0 in 37 W/m2
07:58 70.3 °F 63.1 °F 29.9 in WSW 0.9 mph 3 mph 78% 0 in 32 W/m2
08:03 70.3 °F 63.1 °F 29.9 in Calm   1 mph 78% 0 in 33 W/m2
08:08 70.3 °F 63.1 °F 29.9 in WNW 0.9 mph 1 mph 78% 0 in 47 W/m2
08:13 70.3 °F 63.1 °F 29.9 in NE 0.9 mph 3 mph 78% 0 in 58 W/m2
08:18 70.3 °F 63.5 °F 29.9 in WNW 2 mph 5 mph 79% 0 in 63 W/m2
08:23 70.3 °F 63.5 °F 29.9 in NW 2 mph 2 mph 79% 0 in 58 W/m2
08:28 70.3 °F 63.5 °F 29.9 in Calm   4 mph 79% 0 in 47 W/m2
08:33 70.3 °F 63.9 °F 29.9 in NW 0.9 mph 2 mph 80% 0 in 42 W/m2
08:38 70.3 °F 63.9 °F 29.9 in NNW 2 mph 3 mph 80% 0 in 47 W/m2
08:43 70.3 °F 63.9 °F 29.9 in Calm     80% 0 in 65 W/m2
08:48 70.3 °F 63.9 °F 29.9 in SSW 0.9 mph 3 mph 80% 0 in 72 W/m2
08:53 70.3 °F 63.9 °F 29.9 in North 0.9 mph 2 mph 80% 0 in 65 W/m2
08:58 70.3 °F 64.2 °F 29.9 in NNE 0.9 mph 1 mph 81% 0 in 65 W/m2
09:03 70.3 °F 64.2 °F 29.9 in ENE 0.9 mph 1 mph 81% 0 in 65 W/m2
09:08 70.3 °F 64.2 °F 29.9 in South 2 mph 2 mph 81% 0 in 69 W/m2
09:13 70.3 °F 64.2 °F 29.9 in Calm   1 mph 81% 0 in 83 W/m2
09:18 70.3 °F 64.6 °F 29.9 in Calm     82% 0 in 102 W/m2
09:23 70.3 °F 64.6 °F 29.9 in East 0.9 mph 2 mph 82% 0 in 130 W/m2
09:28 70.3 °F 64.6 °F 29.9 in NNW 0.9 mph 2 mph 82% 0 in 139 W/m2
09:33 70.5 °F 65.1 °F 29.9 in Calm   1 mph 83% 0 in 128 W/m2
09:38 70.3 °F 64.9 °F 29.9 in NW 0.9 mph 2 mph 83% 0 in 128 W/m2
09:43 70.3 °F 64.9 °F 29.9 in Calm     83% 0 in 123 W/m2
09:48 70.5 °F 65.1 °F 29.9 in WNW 0.9 mph 2 mph 83% 0 in 121 W/m2
09:53 70.5 °F 65.1 °F 29.9 in Calm   1 mph 83% 0 in 132 W/m2
09:58 70.5 °F 65.1 °F 29.9 in Calm     83% 0 in 151 W/m2
10:03 70.7 °F 65.3 °F 29.9 in Calm   3 mph 83% 0 in 174 W/m2
10:08 71.1 °F 65.3 °F 29.9 in Calm   1 mph 82% 0 in 176 W/m2
10:13 71.2 °F 65.1 °F 29.9 in Calm   3 mph 81% 0 in 197 W/m2
10:18 71.4 °F 65.3 °F 29.9 in North 0.9 mph 1 mph 81% 0 in 160 W/m2
10:23 71.8 °F 64.9 °F 29.9 in ESE 2 mph 3 mph 79% 0 in 121 W/m2
Juneau County Weather
Compliments of Weather Underground - 4 mb